Time;durP1;ratioP1;P1;durP2;ratioP2;P2;SDS_P1;SDS_P2;PMS_P1;PMS_P2;Temp;Humidity;BMP_temperature;BMP_pressure;BME280_temperature;BME280_humidity;BME280_pressure;Samples;Min_cycle;Max_cycle;Signal;HPM_P1;HPM_P2
2021/07/12 00:00:58;;;;;;;14.38;12.63;;;;;;;21.19;84.86;100222.38;5075725;28;20460;-76
2021/07/12 00:03:23;;;;;;;13.65;11.90;;;;;;;21.42;83.42;100256.28;5077390;28;20032;-76
2021/07/12 00:05:49;;;;;;;24.40;12.82;;;;;;;21.38;83.94;100261.56;5062817;28;20410;-68
2021/07/12 00:08:15;;;;;;;14.10;12.57;;;;;;;21.10;84.46;100248.75;5081498;28;20028;-69
2021/07/12 00:10:40;;;;;;;16.05;12.50;;;;;;;21.26;84.49;100252.06;5058613;28;20399;-71
2021/07/12 00:13:06;;;;;;;17.77;12.93;;;;;;;21.27;83.12;100243.31;5054379;28;20024;-72
2021/07/12 00:15:32;;;;;;;15.57;11.55;;;;;;;21.32;83.50;100260.75;5051474;28;20626;-72
2021/07/12 00:17:59;;;;;;;12.90;11.55;;;;;;;21.39;83.25;100258.06;5030402;28;20076;-72
2021/07/12 00:20:25;;;;;;;13.85;11.77;;;;;;;21.18;83.13;100212.78;5054866;28;20138;-73
2021/07/12 00:22:53;;;;;;;19.20;11.80;;;;;;;21.22;83.50;100248.63;5058358;28;20490;-72
2021/07/12 00:25:21;;;;;;;13.30;11.35;;;;;;;20.96;83.87;100257.63;5035044;28;20078;-71
2021/07/12 00:27:47;;;;;;;19.25;12.45;;;;;;;21.04;83.75;100254.91;5036958;28;20021;-73
2021/07/12 00:30:19;;;;;;;14.18;11.77;;;;;;;21.19;83.26;100261.78;5052115;28;20397;-73
2021/07/12 00:32:46;;;;;;;14.65;11.50;;;;;;;21.33;82.73;100256.38;5053508;28;20016;-70
2021/07/12 00:35:13;;;;;;;12.43;10.73;;;;;;;21.36;82.29;100248.47;5051040;28;20055;-76
2021/07/12 00:37:39;;;;;;;18.45;11.82;;;;;;;21.29;82.50;100244.16;5052794;28;20025;-73
2021/07/12 00:40:10;;;;;;;16.52;11.55;;;;;;;21.35;82.15;100257.22;5087955;28;20048;-69
2021/07/12 00:42:36;;;;;;;12.55;11.23;;;;;;;21.36;81.91;100258.97;5069977;28;20041;-72
2021/07/12 00:45:07;;;;;;;17.35;11.18;;;;;;;20.97;82.86;100238.38;5057225;28;20036;-69
2021/07/12 00:47:32;;;;;;;13.00;11.25;;;;;;;20.66;83.21;100178.28;5053762;28;20179;-70
2021/07/12 00:49:58;;;;;;;18.88;11.07;;;;;;;21.21;82.34;100253.88;5053778;28;20114;-69
2021/07/12 00:52:23;;;;;;;15.93;11.70;;;;;;;21.25;81.88;100251.22;5060886;28;20032;-70
2021/07/12 00:54:48;;;;;;;12.30;10.35;;;;;;;21.28;81.68;100243.31;5060749;28;20037;-69
2021/07/12 00:57:15;;;;;;;17.33;11.35;;;;;;;21.41;81.50;100237.91;5052585;28;20031;-71
2021/07/12 00:59:40;;;;;;;14.07;11.30;;;;;;;21.43;80.95;100244.91;5053525;28;20040;-70
2021/07/12 01:02:06;;;;;;;16.20;11.52;;;;;;;21.44;80.87;100251.88;5053875;28;20454;-71
2021/07/12 01:04:33;;;;;;;19.55;10.88;;;;;;;21.49;81.20;100260.56;5035590;28;20021;-72
2021/07/12 01:06:59;;;;;;;15.10;11.32;;;;;;;21.44;81.20;100266.75;5053275;28;20037;-69
2021/07/12 01:09:24;;;;;;;13.45;11.20;;;;;;;21.05;82.04;100250.53;5053388;28;20031;-71
2021/07/12 01:12:20;;;;;;;14.65;10.90;;;;;;;21.01;83.06;100268.94;5053417;28;20029;-69
2021/07/12 01:14:48;;;;;;;13.35;11.65;;;;;;;21.05;83.47;100263.66;4994895;28;20124;-70
2021/07/12 01:17:48;;;;;;;19.85;12.73;;;;;;;21.00;82.97;100266.34;4998526;28;20082;-68
2021/07/12 01:20:59;;;;;;;13.85;11.82;;;;;;;21.07;82.31;100265.41;4988354;28;20557;-71
2021/07/12 01:23:31;;;;;;;15.38;12.05;;;;;;;21.10;81.87;100267.13;4991429;28;20056;-69
2021/07/12 01:26:14;;;;;;;14.82;11.48;;;;;;;20.64;82.51;100208.91;4991426;28;20042;-68
2021/07/12 01:29:13;;;;;;;15.73;12.35;;;;;;;20.54;82.82;100209.88;4991179;28;20030;-74
2021/07/12 01:31:47;;;;;;;15.38;12.23;;;;;;;20.85;82.74;100255.09;4991347;28;20065;-69
2021/07/12 01:34:23;;;;;;;14.93;11.73;;;;;;;20.87;82.83;100249.81;4991331;28;20034;-68
2021/07/12 01:37:12;;;;;;;18.83;13.57;;;;;;;20.59;82.53;100264.91;4991417;28;20530;-69
2021/07/12 01:39:48;;;;;;;16.98;13.60;;;;;;;20.55;82.98;100250.06;4991283;28;20097;-69
2021/07/12 01:42:43;;;;;;;17.77;13.05;;;;;;;20.55;82.97;100247.44;4991016;28;20058;-74
2021/07/12 01:45:14;;;;;;;16.98;12.35;;;;;;;20.52;82.84;100254.47;4935750;29;20044;-71
2021/07/12 01:48:02;;;;;;;15.18;13.30;;;;;;;20.60;83.76;100249.16;4933076;29;20043;-72
2021/07/12 01:50:31;;;;;;;18.20;12.68;;;;;;;20.63;82.87;100249.13;4932891;29;20209;-68
2021/07/12 01:56:17;;;;;;;16.20;11.82;;;;;;;20.45;82.08;100260.63;5169717;22;20306;-68
2021/07/12 01:58:54;;;;;;;16.23;12.00;;;;;;;20.50;82.03;100243.09;5073323;28;20033;-68
2021/07/12 02:01:22;;;;;;;13.45;12.05;;;;;;;20.43;82.54;100244.03;5069957;28;20043;-67
2021/07/12 02:03:49;;;;;;;14.52;11.75;;;;;;;20.29;83.23;100244.13;5066421;28;20411;-70
2021/07/12 02:06:15;;;;;;;15.40;12.57;;;;;;;20.34;82.70;100249.34;5072608;28;20032;-72
2021/07/12 02:08:47;;;;;;;13.75;12.27;;;;;;;20.34;83.31;100249.34;5088171;28;20035;-68
2021/07/12 02:11:17;;;;;;;18.60;12.80;;;;;;;20.39;83.87;100241.44;5092463;28;20422;-69
2021/07/12 02:13:50;;;;;;;18.23;12.05;;;;;;;20.36;83.48;100226.59;5092732;28;20032;-68
2021/07/12 02:16:18;;;;;;;13.48;11.82;;;;;;;20.44;82.46;100230.03;5092203;28;20047;-70
2021/07/12 02:18:45;;;;;;;16.27;12.20;;;;;;;20.52;83.03;100245.72;5092153;28;20494;-67
2021/07/12 02:21:11;;;;;;;14.77;11.50;;;;;;;20.57;82.51;100249.16;5092477;28;20024;-68
2021/07/12 02:23:40;;;;;;;16.95;11.23;;;;;;;20.46;81.73;100233.53;5056753;28;20040;-67
2021/07/12 02:26:07;;;;;;;14.95;12.65;;;;;;;20.48;82.66;100252.72;5092607;28;20113;-68
2021/07/12 02:28:33;;;;;;;18.40;11.98;;;;;;;20.50;82.60;100261.47;5092069;28;20035;-68
2021/07/12 02:31:00;;;;;;;16.73;11.00;;;;;;;20.47;82.17;100263.22;5092477;28;20097;-69
2021/07/12 02:33:27;;;;;;;13.98;11.25;;;;;;;20.07;83.24;100227.66;5091954;28;20024;-70
2021/07/12 02:35:54;;;;;;;13.88;12.38;;;;;;;20.23;83.47;100267.75;5074115;28;20028;-68
2021/07/12 02:38:22;;;;;;;17.33;10.68;;;;;;;20.19;83.17;100258.19;5092544;28;20024;-71
2021/07/12 02:40:49;;;;;;;14.82;10.93;;;;;;;19.64;85.53;100277.59;5092295;28;20445;-67
2021/07/12 02:43:17;;;;;;;15.50;12.30;;;;;;;18.95;89.03;100271.63;5091959;28;20032;-68
2021/07/12 02:45:44;;;;;;;14.57;12.25;;;;;;;18.83;90.06;100282.06;5073658;28;20435;-68
2021/07/12 02:48:09;;;;;;;13.95;12.38;;;;;;;18.79;89.95;100260.31;5092155;28;20032;-68
2021/07/12 02:50:35;;;;;;;13.40;11.93;;;;;;;18.73;90.44;100260.31;5089237;28;20028;-69
2021/07/12 02:53:18;;;;;;;13.85;12.35;;;;;;;18.79;90.57;100278.63;5080062;28;20030;-72
2021/07/12 02:55:44;;;;;;;15.98;12.00;;;;;;;18.69;90.72;100261.16;5091979;28;20494;-70
2021/07/12 02:58:09;;;;;;;14.35;11.95;;;;;;;19.01;89.54;100273.41;5091463;28;20081;-69
2021/07/12 03:00:35;;;;;;;14.13;11.55;;;;;;;19.03;88.61;100276.88;5028826;28;20048;-69
2021/07/12 03:03:00;;;;;;;13.60;12.20;;;;;;;18.73;88.89;100270.75;5012596;28;20029;-69
2021/07/12 03:05:26;;;;;;;13.48;11.98;;;;;;;18.46;89.49;100276.84;5029101;28;20037;-72
2021/07/12 03:08:19;;;;;;;17.52;13.00;;;;;;;18.52;89.01;100272.47;5012598;28;20021;-72
2021/07/12 03:10:59;;;;;;;17.67;12.68;;;;;;;18.65;88.74;100281.19;5028986;28;20037;-68
2021/07/12 03:13:37;;;;;;;19.13;13.77;;;;;;;18.37;89.11;100270.72;5029600;28;20120;-68
2021/07/12 03:16:04;;;;;;;16.40;13.00;;;;;;;18.38;89.50;100279.41;5018853;28;20066;-72
2021/07/12 03:18:35;;;;;;;13.63;12.23;;;;;;;18.44;88.56;100289.88;5012394;28;20033;-69
2021/07/12 03:21:03;;;;;;;16.10;12.35;;;;;;;18.43;88.62;100283.81;5028847;28;20045;-69
2021/07/12 03:23:50;;;;;;;16.43;13.53;;;;;;;18.43;89.16;100272.47;5028723;28;20616;-70
2021/07/12 03:26:19;;;;;;;16.15;11.90;;;;;;;18.56;89.00;100271.59;5028674;28;20134;-72
2021/07/12 03:28:46;;;;;;;16.13;12.50;;;;;;;18.79;88.83;100276.00;5028667;28;20040;-69
2021/07/12 03:31:12;;;;;;;15.32;12.73;;;;;;;18.66;88.17;100253.31;5046557;28;20036;-69
2021/07/12 03:33:39;;;;;;;13.68;12.27;;;;;;;18.85;88.27;100281.19;5090924;28;20044;-72
2021/07/12 03:36:06;;;;;;;14.73;11.52;;;;;;;18.77;87.07;100243.72;5091308;28;20031;-66
2021/07/12 03:38:31;;;;;;;16.10;12.02;;;;;;;19.16;86.47;100286.44;5091174;28;20016;-65
2021/07/12 03:40:58;;;;;;;17.67;12.43;;;;;;;19.14;86.21;100276.84;5091227;28;20045;-66
2021/07/12 03:43:24;;;;;;;15.32;11.38;;;;;;;19.22;86.23;100277.72;5091236;28;20028;-68
2021/07/12 03:45:58;;;;;;;17.05;12.13;;;;;;;19.26;85.73;100270.75;5090605;28;20449;-69
2021/07/12 03:48:38;;;;;;;16.88;12.32;;;;;;;19.34;86.24;100268.97;5090565;28;20103;-71
2021/07/12 03:51:06;;;;;;;15.65;11.75;;;;;;;19.42;85.81;100267.22;5090747;28;20487;-67
2021/07/12 03:53:33;;;;;;;20.63;11.98;;;;;;;19.52;85.99;100274.16;5090856;28;20040;-65
2021/07/12 03:55:59;;;;;;;14.20;11.57;;;;;;;19.58;85.38;100283.75;5072735;28;20422;-67
2021/07/12 03:58:25;;;;;;;15.65;12.73;;;;;;;19.63;85.44;100284.59;5090884;28;20102;-69
2021/07/12 04:00:51;;;;;;;17.15;13.10;;;;;;;19.55;86.07;100284.63;5083198;28;20124;-67
2021/07/12 04:03:16;;;;;;;14.73;12.30;;;;;;;19.68;85.55;100293.31;5073849;28;20038;-67
2021/07/12 04:05:41;;;;;;;17.85;12.70;;;;;;;19.71;85.54;100289.81;5088634;28;20058;-66
2021/07/12 04:08:07;;;;;;;13.98;12.30;;;;;;;19.56;85.64;100275.91;5090888;28;20031;-74
2021/07/12 04:10:32;;;;;;;15.27;12.18;;;;;;;19.51;86.39;100282.88;5076379;28;20020;-73
2021/07/12 04:12:58;;;;;;;15.30;12.98;;;;;;;19.41;86.17;100281.16;5070550;28;20025;-73
2021/07/12 04:15:23;;;;;;;15.07;12.27;;;;;;;19.31;86.58;100275.06;5070133;28;20488;-72
2021/07/12 04:17:49;;;;;;;14.75;13.13;;;;;;;19.26;87.27;100274.22;5073151;28;20484;-71
2021/07/12 04:20:15;;;;;;;15.45;12.40;;;;;;;19.23;87.56;100282.09;5074516;28;20055;-72
2021/07/12 04:22:42;;;;;;;14.48;13.02;;;;;;;19.10;87.77;100254.19;5074272;28;20487;-72
2021/07/12 04:25:09;;;;;;;16.50;12.95;;;;;;;19.26;89.17;100278.59;5056718;28;20016;-72
2021/07/12 04:27:34;;;;;;;19.23;14.27;;;;;;;19.26;89.41;100283.84;5074599;28;20090;-75
2021/07/12 04:30:00;;;;;;;16.35;14.65;;;;;;;19.34;90.26;100276.81;5073444;28;20016;-73
2021/07/12 04:32:25;;;;;;;17.90;14.13;;;;;;;19.25;89.08;100233.22;5051720;28;20069;-72
2021/07/12 04:34:51;;;;;;;18.33;15.13;;;;;;;19.47;89.68;100278.53;5070070;28;20074;-71
2021/07/12 04:37:16;;;;;;;17.20;15.02;;;;;;;19.34;89.21;100242.78;5072412;28;20028;-72
2021/07/12 04:39:42;;;;;;;16.58;14.93;;;;;;;19.48;89.28;100267.19;5067592;28;20021;-73
2021/07/12 04:42:07;;;;;;;17.58;15.68;;;;;;;19.46;89.07;100281.16;5073505;28;20407;-72
2021/07/12 04:44:33;;;;;;;19.35;15.57;;;;;;;19.59;89.79;100279.38;5073587;28;20028;-72
2021/07/12 04:47:00;;;;;;;17.60;15.85;;;;;;;19.80;89.33;100274.06;5073479;28;20373;-77
2021/07/12 04:49:26;;;;;;;18.42;15.38;;;;;;;19.97;88.55;100284.47;5073718;28;20041;-72
2021/07/12 04:51:51;;;;;;;20.30;15.52;;;;;;;20.04;88.12;100280.09;5073783;28;20060;-72
2021/07/12 04:54:17;;;;;;;17.27;15.57;;;;;;;20.13;87.95;100282.66;5073614;28;20057;-72
2021/07/12 04:56:42;;;;;;;17.40;15.55;;;;;;;20.02;88.24;100258.28;5073108;28;20067;-71
2021/07/12 04:59:10;;;;;;;16.33;14.40;;;;;;;20.22;86.99;100280.88;5068680;28;20055;-73
2021/07/12 05:01:37;;;;;;;18.38;15.95;;;;;;;20.38;85.25;100281.66;5073123;28;20519;-71
2021/07/12 05:04:05;;;;;;;18.67;15.05;;;;;;;20.47;84.57;100278.97;5063583;28;20041;-73
2021/07/12 05:06:31;;;;;;;17.80;15.50;;;;;;;20.64;84.42;100282.34;5050784;28;20515;-72
2021/07/12 05:08:57;;;;;;;18.73;16.58;;;;;;;20.66;84.42;100275.34;5058751;28;20052;-72
2021/07/12 05:11:25;;;;;;;18.60;16.00;;;;;;;20.56;84.46;100243.94;5052559;28;20024;-74
2021/07/12 05:13:51;;;;;;;17.33;15.40;;;;;;;20.70;84.71;100255.19;5061655;28;20121;-72
2021/07/12 05:16:17;;;;;;;18.75;14.68;;;;;;;20.79;85.05;100270.88;5051491;28;20028;-70
2021/07/12 05:18:43;;;;;;;19.20;14.80;;;;;;;20.82;84.43;100278.75;5050644;28;20041;-71
2021/07/12 05:21:08;;;;;;;19.40;15.23;;;;;;;20.72;85.23;100237.72;5053468;28;20484;-71
2021/07/12 05:23:36;;;;;;;18.83;15.70;;;;;;;21.03;84.15;100279.41;5053314;28;20041;-73
2021/07/12 05:26:01;;;;;;;17.17;15.30;;;;;;;21.00;85.36;100275.06;5051706;28;20409;-73
2021/07/12 05:28:27;;;;;;;17.33;15.45;;;;;;;21.07;86.24;100281.16;5052023;28;20121;-71
2021/07/12 05:30:52;;;;;;;18.30;16.40;;;;;;;21.15;85.45;100287.19;5052750;28;20052;-76
2021/07/12 05:33:17;;;;;;;19.45;17.33;;;;;;;21.19;86.63;100285.41;5053841;28;20075;-70
2021/07/12 05:35:43;;;;;;;21.50;19.25;;;;;;;21.13;86.12;100278.47;5052565;28;20047;-74
2021/07/12 05:38:09;;;;;;;24.98;20.30;;;;;;;21.25;86.80;100282.72;5055901;28;20017;-71
2021/07/12 05:40:35;;;;;;;22.10;19.75;;;;;;;21.36;86.23;100287.88;5056547;28;20021;-73
2021/07/12 05:43:02;;;;;;;20.98;18.25;;;;;;;21.31;86.61;100277.41;5063903;28;20033;-75
2021/07/12 05:45:27;;;;;;;20.83;18.25;;;;;;;21.48;86.64;100287.72;5067991;28;20430;-72
2021/07/12 05:47:53;;;;;;;19.13;17.00;;;;;;;21.42;87.04;100282.53;5072882;28;20024;-72
2021/07/12 05:50:18;;;;;;;21.80;17.23;;;;;;;21.21;86.68;100253.88;5066139;28;20033;-72
2021/07/12 05:52:44;;;;;;;18.40;16.65;;;;;;;21.49;85.88;100273.69;5069282;28;20044;-72
2021/07/12 05:55:30;;;;;;;20.88;16.67;;;;;;;21.73;85.47;100290.13;5026109;28;20060;-74
2021/07/12 05:57:55;;;;;;;19.73;17.63;;;;;;;21.84;86.29;100289.97;5049457;28;20132;-75
2021/07/12 06:00:21;;;;;;;21.77;17.98;;;;;;;21.90;85.30;100289.88;5050067;28;20155;-74
2021/07/12 06:02:47;;;;;;;20.23;16.45;;;;;;;21.92;85.92;100280.22;5050095;28;20032;-73
2021/07/12 06:05:13;;;;;;;22.13;16.73;;;;;;;22.06;84.02;100282.66;5049540;28;20064;-76
2021/07/12 06:07:39;;;;;;;18.48;16.52;;;;;;;22.15;84.30;100284.31;5033161;28;20029;-72
2021/07/12 06:10:07;;;;;;;20.05;16.20;;;;;;;22.34;85.68;100279.63;5049763;28;20045;-73
2021/07/12 06:12:32;;;;;;;18.73;16.83;;;;;;;22.47;83.75;100283.00;5033371;28;20120;-74
2021/07/12 06:15:18;;;;;;;17.50;15.73;;;;;;;22.62;82.31;100281.91;5010309;28;20434;-73
2021/07/12 06:17:45;;;;;;;16.90;15.20;;;;;;;22.81;82.17;100287.72;5009993;28;20038;-72
2021/07/12 06:20:14;;;;;;;16.20;14.50;;;;;;;22.96;78.47;100289.22;5010360;28;20065;-73
2021/07/12 06:22:39;;;;;;;18.45;15.02;;;;;;;23.04;79.38;100281.19;5010325;28;20030;-73
2021/07/12 06:25:06;;;;;;;17.05;15.25;;;;;;;22.86;79.72;100249.03;5010375;28;20034;-71
2021/07/12 06:27:32;;;;;;;16.27;14.68;;;;;;;23.14;78.86;100284.53;5047403;28;20076;-73
2021/07/12 06:29:57;;;;;;;16.77;14.98;;;;;;;23.36;78.86;100280.63;5049500;28;20029;-75
2021/07/12 06:32:23;;;;;;;16.38;14.60;;;;;;;23.25;76.23;100256.25;5049654;28;20033;-71
2021/07/12 06:34:48;;;;;;;15.50;13.95;;;;;;;23.27;77.63;100276.41;5019052;28;20713;-72
2021/07/12 06:37:14;;;;;;;16.63;14.82;;;;;;;23.31;77.13;100271.94;5049514;28;20480;-71
2021/07/12 06:39:39;;;;;;;16.63;15.02;;;;;;;23.33;78.66;100283.34;5048805;28;20037;-71
2021/07/12 06:42:05;;;;;;;15.18;13.65;;;;;;;23.35;78.60;100276.28;5032729;28;20025;-72
2021/07/12 06:44:30;;;;;;;14.88;13.38;;;;;;;23.33;75.66;100279.81;5049464;28;20029;-77
2021/07/12 06:46:56;;;;;;;17.25;15.50;;;;;;;23.35;75.82;100272.75;5058695;28;20033;-73
2021/07/12 06:49:21;;;;;;;20.80;17.30;;;;;;;23.48;76.49;100266.38;5071232;28;20031;-72
2021/07/12 06:51:48;;;;;;;15.70;14.20;;;;;;;23.54;78.94;100255.69;5071032;28;20032;-71
2021/07/12 06:54:14;;;;;;;16.52;14.63;;;;;;;23.69;77.71;100275.59;5071466;28;20052;-72
2021/07/12 06:56:39;;;;;;;16.88;14.43;;;;;;;23.78;76.78;100271.06;5072008;28;20545;-72
2021/07/12 06:59:04;;;;;;;14.38;12.65;;;;;;;23.86;76.98;100270.00;5071184;28;20105;-76
2021/07/12 07:01:30;;;;;;;15.00;13.40;;;;;;;23.98;76.84;100268.03;5071536;28;20020;-72
2021/07/12 07:03:55;;;;;;;19.20;12.98;;;;;;;24.09;75.74;100275.69;5071279;28;20073;-72
2021/07/12 07:06:21;;;;;;;12.60;11.25;;;;;;;24.26;74.04;100273.53;5070965;28;20059;-73
2021/07/12 07:08:46;;;;;;;16.20;11.60;;;;;;;24.11;72.73;100239.59;5071226;28;20040;-73
2021/07/12 07:11:12;;;;;;;12.88;11.48;;;;;;;24.26;72.18;100251.56;5071552;28;20028;-71
2021/07/12 07:13:37;;;;;;;12.95;11.65;;;;;;;24.46;73.81;100266.91;5071613;28;20103;-71
2021/07/12 07:16:04;;;;;;;13.68;11.63;;;;;;;24.66;73.34;100282.31;5071159;28;20029;-72
2021/07/12 07:18:30;;;;;;;14.60;10.98;;;;;;;24.69;72.32;100259.34;5071690;28;20024;-74
2021/07/12 07:20:56;;;;;;;13.52;11.25;;;;;;;24.83;71.20;100266.06;5070942;28;20061;-72
2021/07/12 07:23:22;;;;;;;11.90;10.65;;;;;;;24.81;71.18;100271.38;5071509;28;20090;-72
2021/07/12 07:25:47;;;;;;;12.55;11.25;;;;;;;24.98;72.37;100276.22;5071608;28;20025;-72
2021/07/12 07:28:13;;;;;;;11.43;10.25;;;;;;;25.10;67.50;100276.81;5071309;28;20027;-71
2021/07/12 07:30:39;;;;;;;11.30;9.85;;;;;;;25.21;66.85;100282.69;5071560;28;20032;-75
2021/07/12 07:33:06;;;;;;;15.02;10.80;;;;;;;25.35;67.28;100272.59;5071472;28;20048;-72
2021/07/12 07:35:32;;;;;;;12.27;9.60;;;;;;;25.43;65.61;100274.19;5071456;28;20468;-73
2021/07/12 07:37:57;;;;;;;11.15;9.95;;;;;;;25.34;66.08;100240.94;5071600;28;20475;-72
2021/07/12 07:40:23;;;;;;;11.60;10.45;;;;;;;25.58;70.15;100267.59;5071437;28;20039;-73
2021/07/12 07:42:49;;;;;;;11.77;10.57;;;;;;;25.69;69.00;100284.03;5071184;28;20020;-75
2021/07/12 07:45:15;;;;;;;14.02;9.60;;;;;;;25.54;64.47;100243.03;5071118;28;20036;-72
2021/07/12 07:47:42;;;;;;;12.75;10.43;;;;;;;25.96;63.23;100284.13;5071042;28;20119;-72
2021/07/12 07:50:09;;;;;;;11.38;9.80;;;;;;;26.22;63.65;100283.38;5070853;28;20450;-73
2021/07/12 07:52:35;;;;;;;10.20;9.15;;;;;;;26.42;61.66;100276.59;5053185;28;20067;-73
2021/07/12 07:55:02;;;;;;;10.20;9.10;;;;;;;26.49;64.05;100270.16;5081966;28;20539;-73
2021/07/12 07:57:28;;;;;;;10.30;9.07;;;;;;;26.34;62.15;100230.97;5091214;28;20035;-73
2021/07/12 07:59:53;;;;;;;10.68;9.25;;;;;;;26.77;62.07;100274.59;5091252;28;20024;-73
2021/07/12 08:02:19;;;;;;;10.50;9.02;;;;;;;26.72;64.23;100242.94;5091517;28;20020;-75
2021/07/12 08:04:44;;;;;;;11.70;8.60;;;;;;;26.91;62.00;100268.81;5091284;28;20096;-73
2021/07/12 08:07:09;;;;;;;14.23;8.35;;;;;;;26.85;62.25;100240.75;5091422;28;20493;-73
2021/07/12 08:09:36;;;;;;;13.20;8.57;;;;;;;27.20;60.98;100265.13;5091335;28;20501;-73
2021/07/12 08:12:03;;;;;;;12.23;8.23;;;;;;;27.33;62.23;100267.34;5091398;28;20024;-75
2021/07/12 08:14:28;;;;;;;8.73;7.60;;;;;;;27.19;58.27;100267.84;5091367;28;20071;-73
2021/07/12 08:16:54;;;;;;;12.95;7.78;;;;;;;27.08;58.35;100270.91;5087901;28;20059;-72
2021/07/12 08:19:19;;;;;;;8.52;6.95;;;;;;;27.07;56.33;100269.16;5091060;28;20028;-73
2021/07/12 08:21:45;;;;;;;9.73;7.55;;;;;;;26.86;56.48;100253.06;5091233;28;20055;-72
2021/07/12 08:24:10;;;;;;;9.15;7.45;;;;;;;27.00;55.64;100270.28;5091284;28;20411;-73
2021/07/12 08:26:36;;;;;;;14.82;7.70;;;;;;;27.11;55.41;100263.69;5091213;28;20031;-78
2021/07/12 08:29:02;;;;;;;10.07;7.13;;;;;;;27.35;56.60;100260.22;5073126;28;20438;-72
2021/07/12 08:31:28;;;;;;;11.27;7.47;;;;;;;27.43;60.51;100266.16;5091182;28;20465;-72
2021/07/12 08:33:53;;;;;;;11.32;7.72;;;;;;;27.47;55.99;100267.75;5091040;28;20063;-73
2021/07/12 08:36:19;;;;;;;12.80;6.95;;;;;;;27.40;51.58;100229.13;5091084;28;20115;-72
2021/07/12 08:38:45;;;;;;;11.23;7.47;;;;;;;27.75;52.06;100269.38;5090962;28;20085;-73
2021/07/12 08:41:10;;;;;;;11.98;7.50;;;;;;;27.89;53.83;100264.41;5091245;28;20024;-73
2021/07/12 08:43:38;;;;;;;11.50;6.90;;;;;;;27.91;54.78;100265.22;5090913;28;20116;-76
2021/07/12 08:46:04;;;;;;;9.32;6.93;;;;;;;27.99;51.22;100267.59;5091030;28;20107;-72
2021/07/12 08:48:31;;;;;;;11.85;6.68;;;;;;;27.93;55.84;100234.19;5072883;28;20038;-74
2021/07/12 08:50:56;;;;;;;13.52;6.90;;;;;;;28.11;51.75;100268.06;5072860;28;20027;-73
2021/07/12 08:53:22;;;;;;;10.80;7.25;;;;;;;28.19;55.14;100256.22;5091346;28;20028;-72
2021/07/12 08:55:47;;;;;;;11.70;7.50;;;;;;;28.25;61.00;100245.34;5091009;28;20067;-72
2021/07/12 08:58:27;;;;;;;10.18;7.28;;;;;;;28.33;56.55;100260.09;5090783;28;20116;-73
2021/07/12 09:01:00;;;;;;;12.95;7.78;;;;;;;28.31;54.66;100261.94;5090670;28;20115;-74
2021/07/12 09:03:35;;;;;;;8.48;6.50;;;;;;;28.46;51.99;100237.41;5092817;28;20032;-73
2021/07/12 09:06:07;;;;;;;10.38;7.15;;;;;;;28.65;50.56;100247.28;5076229;28;20031;-71
2021/07/12 09:08:47;;;;;;;13.30;7.68;;;;;;;28.79;51.56;100247.59;5094608;28;20445;-72
2021/07/12 09:11:14;;;;;;;9.43;7.68;;;;;;;28.92;50.92;100242.59;5073280;28;20496;-73
2021/07/12 09:13:44;;;;;;;10.55;7.15;;;;;;;28.94;51.83;100227.47;5073558;28;20030;-74
2021/07/12 09:16:26;;;;;;;13.38;6.80;;;;;;;29.21;49.50;100246.66;5071026;28;20036;-72
2021/07/12 09:19:22;;;;;;;8.30;6.72;;;;;;;29.21;47.05;100233.38;5071471;28;20024;-72
2021/07/12 09:21:49;;;;;;;12.23;7.28;;;;;;;29.31;48.48;100240.94;5055232;28;20094;-73
2021/07/12 09:24:25;;;;;;;10.35;7.03;;;;;;;29.30;48.89;100207.34;5073641;28;20024;-75
2021/07/12 09:27:00;;;;;;;8.90;6.22;;;;;;;29.58;44.83;100232.66;5071304;28;20025;-73
2021/07/12 09:29:32;;;;;;;8.05;6.35;;;;;;;29.80;49.80;100243.16;5054831;28;20079;-72
2021/07/12 09:31:58;;;;;;;9.10;6.18;;;;;;;29.82;50.93;100238.63;5067445;28;20513;-72
2021/07/12 09:34:25;;;;;;;9.55;6.38;;;;;;;29.86;45.18;100238.41;5073515;28;20028;-77
2021/07/12 09:36:52;;;;;;;10.40;6.70;;;;;;;30.01;49.49;100233.34;5067006;28;20031;-73
2021/07/12 09:39:23;;;;;;;11.05;6.30;;;;;;;30.02;44.84;100243.06;5070856;28;20040;-73
2021/07/12 09:41:50;;;;;;;9.05;5.57;;;;;;;29.89;46.28;100239.22;5053159;28;20017;-72
2021/07/12 09:44:21;;;;;;;9.43;6.18;;;;;;;30.00;44.85;100242.25;5072622;28;20017;-74
2021/07/12 09:46:47;;;;;;;12.52;6.43;;;;;;;30.10;44.15;100234.69;5054670;28;20119;-74
2021/07/12 09:49:15;;;;;;;7.75;5.53;;;;;;;30.13;43.48;100240.72;5072615;28;20108;-74
2021/07/12 09:51:42;;;;;;;10.38;5.72;;;;;;;30.05;46.96;100242.88;5072628;28;20522;-74
2021/07/12 09:54:29;;;;;;;7.25;5.70;;;;;;;30.10;46.57;100235.53;5073991;28;20044;-74
2021/07/12 09:56:56;;;;;;;7.80;5.95;;;;;;;29.96;45.40;100216.72;5081731;28;20020;-72
2021/07/12 09:59:23;;;;;;;9.15;5.90;;;;;;;30.32;43.17;100242.50;5082271;28;20024;-72
2021/07/12 10:01:56;;;;;;;9.98;5.60;;;;;;;30.56;44.51;100240.44;5082600;28;20020;-72
2021/07/12 10:04:23;;;;;;;8.93;5.70;;;;;;;30.77;42.07;100237.63;5061769;28;20024;-73
2021/07/12 10:06:50;;;;;;;8.15;6.35;;;;;;;30.98;43.61;100238.31;5082742;28;20020;-72
2021/07/12 10:09:21;;;;;;;8.98;5.82;;;;;;;31.03;44.82;100224.72;5083274;28;20570;-75
2021/07/12 10:11:47;;;;;;;8.27;5.53;;;;;;;31.24;44.73;100239.63;5082552;28;20044;-71
2021/07/12 10:14:12;;;;;;;8.63;6.30;;;;;;;31.29;45.09;100229.59;5080774;28;20051;-72
2021/07/12 10:16:38;;;;;;;7.50;6.00;;;;;;;31.41;44.99;100236.03;5083213;28;20031;-72
2021/07/12 10:19:05;;;;;;;8.57;5.57;;;;;;;31.56;41.18;100230.81;5081066;28;20066;-74
2021/07/12 10:21:41;;;;;;;8.68;5.68;;;;;;;31.71;39.63;100238.00;5072776;28;20025;-77
2021/07/12 10:24:07;;;;;;;9.63;5.82;;;;;;;31.82;40.22;100233.91;5072375;28;20403;-73
2021/07/12 10:26:42;;;;;;;7.65;5.35;;;;;;;31.93;38.79;100237.69;5072730;28;20089;-73
2021/07/12 10:29:13;;;;;;;6.07;4.80;;;;;;;32.06;36.06;100232.50;5072710;28;20131;-73
2021/07/12 10:32:05;;;;;;;7.05;4.90;;;;;;;32.29;39.11;100234.84;5067697;28;20037;-72
2021/07/12 10:34:37;;;;;;;8.48;5.20;;;;;;;32.17;36.65;100201.66;5072247;28;20024;-72
2021/07/12 10:37:06;;;;;;;8.75;5.43;;;;;;;32.38;36.05;100219.13;5072329;28;20121;-75
2021/07/12 10:40:09;;;;;;;6.85;5.30;;;;;;;32.39;37.00;100236.88;5072514;28;20028;-75
2021/07/12 10:42:50;;;;;;;8.30;5.43;;;;;;;32.11;34.51;100229.56;5072177;28;20029;-76
2021/07/12 10:45:38;;;;;;;8.82;4.97;;;;;;;32.20;35.33;100231.75;5072736;28;20024;-75
2021/07/12 10:48:05;;;;;;;6.72;5.40;;;;;;;32.35;36.50;100231.81;5072506;28;20016;-74
2021/07/12 10:50:42;;;;;;;6.35;4.95;;;;;;;32.48;35.42;100223.94;5071352;28;20032;-73
2021/07/12 10:53:14;;;;;;;8.57;5.05;;;;;;;32.68;33.13;100228.97;5056058;28;20024;-73
2021/07/12 10:56:03;;;;;;;7.60;5.03;;;;;;;32.83;36.63;100221.00;5053909;28;20056;-74
2021/07/12 10:58:34;;;;;;;10.13;5.57;;;;;;;32.96;37.57;100230.03;5052514;28;20032;-73
2021/07/12 11:01:03;;;;;;;8.15;5.13;;;;;;;32.77;35.80;100221.38;5053521;28;20029;-72
2021/07/12 11:03:38;;;;;;;8.25;5.40;;;;;;;32.62;37.61;100223.13;5055105;28;20171;-73
2021/07/12 11:06:06;;;;;;;8.00;5.65;;;;;;;32.57;37.55;100220.72;5052597;28;20056;-73
2021/07/12 11:08:51;;;;;;;7.15;5.00;;;;;;;32.52;34.17;100193.41;5051975;28;20116;-73
2021/07/12 11:11:19;;;;;;;7.78;4.30;;;;;;;32.89;30.91;100229.50;5051176;28;20036;-75
2021/07/12 11:13:52;;;;;;;7.00;5.03;;;;;;;33.14;32.47;100227.16;5052876;28;20503;-72
2021/07/12 11:16:23;;;;;;;7.13;4.32;;;;;;;33.41;29.20;100221.06;5003301;28;20264;-75
2021/07/12 11:18:51;;;;;;;8.93;4.43;;;;;;;33.54;33.02;100228.22;5052625;28;20024;-72
2021/07/12 11:21:48;;;;;;;6.55;4.43;;;;;;;33.38;33.55;100217.63;5051886;28;20028;-71
2021/07/12 11:24:20;;;;;;;7.80;4.85;;;;;;;33.28;33.33;100219.13;5046211;28;20044;-75
2021/07/12 11:26:48;;;;;;;6.32;4.63;;;;;;;33.29;32.63;100217.38;5046664;28;20090;-76